Página principal
METAR-TAF:

METAR-TAF

Aeroportos :

Aeroporto Moscovo Sheremetievo

Moscovo-Sheremetyevo, Rússia

latitude: 55-58N, longitude: 037-25E, altura: 190 m

Observação actual do tempo

O boletim foi feito há 24 minutos, às 05:30 UTC
Vento 6 kt de sudeste
Temperatura 0°C
Humidade 59%
Pressão 1032 hPa
Visibilidade 10 km ou mais
Nuvens dispersasa uma altura de 4800 ft

METAR: UUEE 150530Z 13003MPS 9999 SCT048 M00/M07 Q1032 R24L/520151 R24C/520145 NOSIG

Hora: 08:54 (05:54 UTC)

Previsão

O boletim foi feito há 55 minutos, às 04:59 UTC
Previsão válida de 15 às 06 UTC a 16 às 06 UTC
Vento 6 kt de su-sudeste
Visibilidade: 9000 m
Nuvens fragmentadasa uma altura de 2000 ft

TAF: UUEE 150459Z 1506/1606 15003MPS 9000 BKN020 TX01/1512Z TNM06/1603Z

Observações e previsões do tempo de mais de 4000 aeroportos (mensagens METAR e TAF).

As estações disponíveis são os pontos amarelos e vermelhos sobre o mapa.

Mova o rato sobre o mapa para ver o nome da estação.

Depois clique no ponto para visualizar as observações e previsões meteorológicas.

Para alterar o mapa : clique nos botões verdes com uma cruz preta para aumentar o zoom; no botão verde com uma pitada de zoom; ou nas setas verdes para mapas adjacentes.


METAR-TAF: